Itu, Brazil
Current Conditions -  °F | °C
As of 4:00 PM on Monday 26 Jan 2015 (Local Time) from SBKP Reporting Station
Rain Showers Rain Showers  
Wind Chill: 84°   Ceiling: Unl
Heat Index: 86°   Visibility: 6mi
Dew Point: 64°   Wind: 7mph
Humidity: 51%   Direction: 310°NW
Pressure: NA   Gusts: NA
Location:  23.26°S, 47.3°W
Report Text: SBKP 261800Z 31006KT 230V020 9999 VCSH SCT040 FEW045TCU 29/18 Q1015
Loading
Personal Weather Stations






























Interactive Weather Map New forecast layout! Learn more

10-Day Weather Forecast

Advertisements
Track Severe Weather on mobile